createdAt,value
2022-12-19T03:46:17.884Z,48.26
2022-12-19T03:47:17.844Z,44.92
2022-12-19T03:48:17.910Z,50.19
2022-12-19T03:49:17.731Z,53.89
2022-12-19T03:50:17.691Z,48.12
2022-12-19T03:51:17.700Z,49.92
2022-12-19T03:52:17.686Z,54.58
2022-12-19T03:53:17.680Z,56.11
2022-12-19T03:54:18.839Z,54.33
2022-12-19T03:55:18.872Z,55.83
2022-12-19T03:56:18.827Z,49.64
2022-12-19T03:57:18.867Z,56.13
2022-12-19T03:58:19.483Z,52.48
2022-12-19T03:59:18.811Z,53.36
2022-12-19T04:00:19.358Z,52.97
2022-12-19T04:01:18.972Z,56.54
2022-12-19T04:02:18.831Z,54.50
2022-12-19T04:03:18.828Z,54.16
2022-12-19T04:04:18.775Z,51.22
2022-12-19T04:05:18.896Z,52.49
2022-12-19T04:06:18.782Z,52.98
2022-12-19T04:07:18.937Z,57.12
2022-12-19T04:08:18.734Z,56.65
2022-12-19T04:09:22.396Z,53.57
2022-12-19T04:10:19.740Z,52.68
2022-12-19T04:11:18.691Z,55.98
2022-12-19T04:12:18.745Z,57.91
2022-12-19T04:13:18.722Z,57.30
2022-12-19T04:14:19.351Z,55.63
2022-12-19T04:15:18.680Z,57.12
2022-12-19T04:16:18.677Z,55.90
2022-12-19T04:17:18.649Z,60.20
2022-12-19T04:18:18.603Z,58.86
2022-12-19T04:19:18.640Z,57.92
2022-12-19T04:20:18.609Z,58.20
2022-12-19T04:21:18.670Z,57.33
2022-12-19T04:22:18.584Z,56.21
2022-12-19T04:23:18.659Z,58.82
2022-12-19T04:24:18.553Z,60.83
2022-12-19T04:25:18.543Z,59.45
2022-12-19T04:26:18.570Z,58.96
2022-12-19T04:27:18.533Z,59.74
2022-12-19T04:28:18.728Z,57.13
2022-12-19T04:29:18.533Z,58.72
2022-12-19T04:30:18.550Z,59.32
2022-12-19T04:31:18.513Z,59.54
2022-12-19T04:32:18.468Z,59.10
2022-12-19T04:33:18.615Z,57.33
2022-12-19T04:34:18.532Z,57.45
2022-12-19T04:35:18.537Z,55.29
2022-12-19T04:36:18.471Z,59.27
2022-12-19T04:37:18.454Z,57.54
2022-12-19T04:38:18.440Z,55.74
2022-12-19T04:39:18.433Z,59.50
2022-12-19T04:40:18.397Z,57.35
2022-12-19T04:41:18.409Z,57.78
2022-12-19T04:42:18.464Z,58.61
2022-12-19T04:43:18.449Z,57.38
2022-12-19T04:44:18.367Z,56.57
2022-12-19T04:45:18.375Z,59.59
2022-12-19T04:46:18.454Z,56.98
2022-12-19T04:47:18.351Z,58.76
2022-12-19T04:48:18.347Z,58.34
2022-12-19T04:49:18.480Z,58.53
2022-12-19T04:50:18.335Z,57.46
2022-12-19T04:51:18.308Z,57.30
2022-12-19T04:52:18.326Z,59.60
2022-12-19T04:53:18.352Z,58.49
2022-12-19T04:54:18.296Z,56.77
2022-12-19T04:55:18.286Z,58.68
2022-12-19T04:56:18.274Z,58.93
2022-12-19T04:57:18.279Z,59.93
2022-12-19T04:58:21.872Z,55.69
2022-12-19T04:59:19.265Z,56.92
2022-12-19T05:00:18.255Z,56.57
2022-12-19T05:01:18.964Z,58.51
2022-12-19T05:02:18.284Z,57.57
2022-12-19T05:03:18.510Z,54.66
2022-12-19T05:04:18.199Z,56.95
2022-12-19T05:05:18.242Z,57.60
2022-12-19T05:06:18.188Z,58.16
2022-12-19T05:07:18.192Z,56.26
2022-12-19T05:08:18.209Z,58.78
2022-12-19T05:09:18.166Z,59.03
2022-12-19T05:10:18.348Z,58.60
2022-12-19T05:11:19.855Z,59.07
2022-12-19T05:12:19.194Z,58.27
2022-12-19T05:13:18.173Z,60.72
2022-12-19T05:14:18.098Z,59.70
2022-12-19T05:15:18.268Z,58.92
2022-12-19T05:16:18.198Z,57.61
2022-12-19T05:17:18.218Z,58.74
2022-12-19T05:18:18.105Z,57.12
2022-12-19T05:19:18.067Z,57.89
2022-12-19T05:20:18.039Z,61.19
2022-12-19T05:21:18.141Z,58.23
2022-12-19T05:22:18.918Z,58.28
2022-12-19T05:23:18.085Z,58.75
2022-12-19T05:24:18.011Z,58.95
2022-12-19T05:25:18.009Z,58.31
2022-12-19T05:26:17.985Z,59.54
2022-12-19T05:27:18.030Z,57.83
2022-12-19T05:28:17.984Z,58.78
2022-12-19T05:29:18.186Z,58.02
2022-12-19T05:30:18.010Z,59.52
2022-12-19T05:31:18.920Z,60.25
2022-12-19T05:32:17.973Z,58.20
2022-12-19T05:33:17.921Z,58.04
2022-12-19T05:34:17.949Z,58.48
2022-12-19T05:35:17.926Z,61.12
2022-12-19T05:36:18.118Z,61.33
2022-12-19T05:37:17.915Z,58.51
2022-12-19T05:38:17.979Z,58.69
2022-12-19T05:39:17.872Z,57.04
2022-12-19T05:40:17.853Z,57.75
2022-12-19T05:41:17.900Z,60.90
2022-12-19T05:42:17.871Z,61.42
2022-12-19T05:43:17.857Z,59.22
2022-12-19T05:44:17.836Z,58.46
2022-12-19T05:45:17.943Z,62.24
2022-12-19T05:46:17.874Z,60.33
2022-12-19T05:47:17.822Z,61.05
2022-12-19T05:48:17.770Z,62.30
2022-12-19T05:49:17.813Z,60.09
2022-12-19T05:50:17.813Z,58.52
2022-12-19T05:51:17.755Z,60.99
2022-12-19T05:52:18.010Z,61.13
2022-12-19T05:53:20.673Z,61.31
2022-12-19T05:54:18.957Z,63.33
2022-12-19T05:55:17.760Z,58.00
2022-12-19T05:56:17.777Z,60.13
2022-12-19T05:57:17.722Z,61.63
2022-12-19T05:58:17.752Z,60.78
2022-12-19T05:59:17.919Z,58.86
2022-12-19T06:00:17.739Z,61.43
2022-12-19T06:01:17.740Z,62.13
2022-12-19T06:02:17.763Z,61.74
2022-12-19T06:03:18.073Z,60.70
2022-12-19T06:04:17.760Z,61.14
2022-12-19T06:05:17.666Z,56.90
2022-12-19T06:06:17.894Z,59.50
2022-12-19T06:07:20.864Z,61.26
2022-12-19T06:08:18.889Z,56.71
2022-12-19T06:09:17.751Z,58.42
2022-12-19T06:10:17.707Z,59.06
2022-12-19T06:11:17.678Z,60.88
2022-12-19T06:12:17.592Z,57.08
2022-12-19T06:13:22.097Z,58.47
2022-12-19T06:14:18.592Z,58.72
2022-12-19T06:15:17.617Z,61.18
2022-12-19T06:16:17.654Z,58.93
2022-12-19T06:17:17.560Z,60.88
2022-12-19T06:18:17.597Z,59.54
2022-12-19T06:19:17.592Z,58.83
2022-12-19T06:20:17.503Z,59.06
2022-12-19T06:21:17.523Z,62.35
2022-12-19T06:22:17.496Z,60.69
2022-12-19T06:23:17.638Z,60.64
2022-12-19T06:24:17.524Z,60.12
2022-12-19T06:25:18.187Z,58.28
2022-12-19T06:26:19.791Z,60.60
2022-12-19T06:27:19.567Z,61.05
2022-12-19T06:28:17.427Z,57.83
2022-12-19T06:29:17.445Z,59.06
2022-12-19T06:30:17.434Z,57.58
2022-12-19T06:31:17.488Z,56.77
2022-12-19T06:32:17.608Z,60.55
2022-12-19T06:33:17.402Z,59.28
2022-12-19T06:34:39.528Z,59.25
2022-12-19T06:35:19.484Z,57.07
2022-12-19T06:36:17.422Z,61.09
2022-12-19T06:37:17.488Z,62.07
2022-12-19T06:38:17.363Z,61.28
2022-12-19T06:39:17.553Z,58.67
2022-12-19T06:40:17.453Z,59.62
2022-12-19T06:41:17.469Z,61.47
2022-12-19T06:42:17.347Z,59.04
2022-12-19T06:43:17.336Z,61.20
2022-12-19T06:44:17.373Z,61.49
2022-12-19T06:45:17.275Z,59.64
2022-12-19T06:46:17.442Z,59.95
2022-12-19T06:47:17.360Z,59.68
2022-12-19T06:48:17.341Z,59.27
2022-12-19T06:49:17.266Z,59.75
2022-12-19T06:50:17.282Z,59.93
2022-12-19T06:51:17.184Z,60.79
2022-12-19T06:52:17.303Z,61.65
2022-12-19T06:53:17.197Z,59.24
2022-12-19T06:54:17.253Z,59.87
2022-12-19T06:55:17.359Z,59.93
2022-12-19T06:56:17.148Z,60.56
2022-12-19T06:57:17.293Z,60.01
2022-12-19T06:58:20.226Z,62.03
2022-12-19T06:59:18.131Z,61.65
2022-12-19T07:00:17.191Z,58.90
2022-12-19T07:01:17.250Z,61.23
2022-12-19T07:02:17.321Z,60.41
2022-12-19T07:03:17.107Z,60.32
2022-12-19T07:04:17.135Z,56.69
2022-12-19T07:05:17.091Z,58.57
2022-12-19T07:06:17.473Z,63.92
2022-12-19T07:07:17.115Z,60.83
2022-12-19T07:08:17.311Z,61.89
2022-12-19T07:09:17.215Z,61.07
2022-12-19T07:10:17.240Z,56.96
2022-12-19T07:11:17.138Z,58.84
2022-12-19T07:12:17.044Z,62.11
2022-12-19T07:13:17.059Z,58.83
2022-12-19T07:14:18.070Z,59.80
2022-12-19T07:15:17.018Z,59.81
2022-12-19T07:16:17.142Z,59.20
2022-12-19T07:17:17.028Z,61.26
2022-12-19T07:18:17.056Z,59.28
2022-12-19T07:19:16.987Z,59.90
2022-12-19T07:20:17.003Z,59.31
2022-12-19T07:21:16.950Z,59.88
2022-12-19T07:22:16.990Z,60.28
2022-12-19T07:23:16.952Z,62.01
2022-12-19T07:24:16.920Z,60.52
2022-12-19T07:25:16.963Z,61.20
2022-12-19T07:26:16.863Z,60.85
2022-12-19T07:27:16.836Z,64.25
2022-12-19T07:28:16.966Z,63.74
2022-12-19T07:29:16.891Z,63.72
2022-12-19T07:30:16.830Z,62.63
2022-12-19T07:31:16.871Z,62.12
2022-12-19T07:32:17.979Z,63.58
2022-12-19T07:33:21.247Z,63.15
2022-12-19T07:34:20.151Z,61.50
2022-12-19T07:35:19.259Z,61.14
2022-12-19T07:36:16.902Z,62.77
2022-12-19T07:37:17.520Z,62.77
2022-12-19T07:38:16.806Z,64.68
2022-12-19T07:39:17.393Z,62.84
2022-12-19T07:40:16.738Z,63.66
2022-12-19T07:41:17.362Z,62.52
2022-12-19T07:42:16.802Z,63.49
2022-12-19T07:43:17.274Z,63.07
2022-12-19T07:44:17.088Z,63.25
2022-12-19T08:19:27.733Z,62.44
2022-12-19T08:20:26.849Z,60.65
2022-12-19T08:21:26.847Z,61.97
2022-12-19T08:22:26.840Z,63.16
2022-12-19T08:23:26.873Z,61.73
2022-12-19T08:24:28.087Z,63.19
2022-12-19T08:25:28.023Z,61.35
2022-12-19T08:26:31.233Z,61.25
2022-12-19T08:27:29.077Z,63.27
2022-12-19T08:28:28.137Z,61.94
2022-12-19T08:29:28.038Z,60.72
2022-12-19T08:30:27.939Z,60.53
2022-12-19T08:31:27.949Z,62.57
2022-12-19T08:32:27.944Z,61.67
2022-12-19T08:33:27.883Z,61.08
2022-12-19T08:34:28.965Z,63.36
2022-12-19T08:35:27.931Z,62.10
2022-12-19T08:36:27.857Z,64.85
2022-12-19T08:37:27.872Z,61.63
2022-12-19T08:38:27.906Z,61.19
2022-12-19T08:39:27.912Z,61.12
2022-12-19T08:40:27.823Z,63.40
2022-12-19T08:41:27.962Z,62.21
2022-12-19T08:42:27.824Z,62.56
2022-12-19T08:43:27.953Z,61.54
2022-12-19T08:44:27.818Z,63.94
2022-12-19T08:45:27.789Z,61.27
2022-12-19T08:46:27.928Z,60.79
2022-12-19T08:47:27.769Z,63.48
2022-12-19T08:48:27.757Z,61.70
2022-12-19T08:49:27.775Z,60.46
2022-12-19T08:50:27.863Z,60.97
2022-12-19T08:51:27.722Z,61.20
2022-12-19T08:52:27.921Z,61.19
2022-12-19T08:53:27.703Z,60.18
2022-12-19T08:54:27.742Z,58.47
2022-12-19T08:55:27.757Z,63.80
2022-12-19T08:56:27.666Z,65.39
2022-12-19T08:57:27.725Z,62.36
2022-12-19T08:58:27.648Z,63.86
2022-12-19T08:59:31.521Z,60.25
2022-12-19T09:00:27.680Z,55.86
2022-12-19T09:01:27.630Z,61.52
2022-12-19T09:02:28.741Z,64.16
2022-12-19T09:03:29.297Z,60.92
2022-12-19T09:05:57.367Z,56.21
2022-12-19T09:05:58.840Z,60.94
2022-12-19T09:06:28.695Z,63.33
2022-12-19T09:07:27.595Z,63.02
2022-12-19T09:08:27.561Z,61.40
2022-12-19T09:09:27.633Z,63.19
2022-12-19T09:10:27.562Z,63.64
2022-12-19T09:11:27.682Z,60.30
2022-12-19T09:12:27.519Z,60.38
2022-12-19T09:13:27.576Z,59.67
2022-12-19T09:14:27.522Z,62.03
2022-12-19T09:15:27.567Z,60.03
2022-12-19T09:16:27.600Z,61.31
2022-12-19T09:17:28.541Z,62.12
2022-12-19T09:18:28.062Z,60.12
2022-12-19T09:19:27.467Z,59.51
2022-12-19T09:20:27.735Z,61.36
2022-12-19T09:21:28.494Z,61.43
2022-12-19T09:22:27.797Z,62.07
2022-12-19T09:23:27.450Z,63.00
2022-12-19T09:24:27.450Z,63.13
2022-12-19T09:25:27.531Z,62.01
2022-12-19T09:26:27.424Z,60.83
2022-12-19T09:27:28.421Z,59.57
2022-12-19T09:28:28.224Z,59.63
2022-12-19T09:29:32.202Z,61.93
2022-12-19T09:30:29.361Z,61.16
2022-12-19T09:31:27.345Z,59.81
2022-12-19T09:32:27.485Z,61.51
2022-12-19T09:33:27.323Z,63.72
2022-12-19T09:34:36.735Z,63.53
2022-12-19T09:35:30.477Z,63.05
2022-12-19T09:36:28.287Z,59.40
2022-12-19T09:37:27.284Z,62.80
2022-12-19T09:38:27.399Z,61.52
2022-12-19T09:39:27.308Z,61.97
2022-12-19T09:40:27.233Z,59.57
2022-12-19T09:41:27.907Z,61.37
2022-12-19T09:42:27.252Z,61.59
2022-12-19T09:43:27.221Z,60.63
2022-12-19T09:44:27.252Z,60.73
2022-12-19T09:45:32.002Z,61.71
2022-12-19T09:46:29.117Z,61.30
2022-12-19T09:47:27.247Z,63.12
2022-12-19T09:48:27.176Z,59.15
2022-12-19T09:49:27.172Z,60.87
2022-12-19T09:50:27.133Z,62.01
2022-12-19T09:51:27.175Z,63.29
2022-12-19T09:52:29.840Z,59.36
2022-12-19T09:53:28.182Z,62.80
2022-12-19T09:54:27.179Z,59.69
2022-12-19T09:55:27.101Z,57.83
2022-12-19T09:56:27.107Z,62.68
2022-12-19T09:57:27.163Z,61.03
2022-12-19T09:58:27.063Z,62.41
2022-12-19T09:59:28.350Z,62.67
2022-12-19T10:00:29.270Z,60.24
2022-12-19T10:01:27.184Z,61.84
2022-12-19T10:02:27.361Z,61.38
2022-12-19T10:03:27.076Z,58.87
2022-12-19T10:04:27.183Z,60.98
2022-12-19T10:05:40.811Z,62.05
2022-12-19T10:07:12.619Z,60.55
2022-12-19T10:08:08.830Z,60.08
2022-12-19T10:08:28.240Z,67.30
2022-12-19T10:11:52.447Z,62.71
2022-12-19T10:12:35.952Z,60.83
2022-12-19T10:12:46.511Z,59.46
2022-12-19T10:12:47.473Z,61.66
2022-12-19T10:13:53.797Z,61.94
2022-12-19T10:15:00.703Z,62.88
2022-12-19T10:15:27.110Z,63.64
2022-12-19T10:16:27.802Z,64.13
2022-12-19T10:17:27.079Z,59.96
2022-12-19T10:18:59.596Z,57.79
2022-12-19T10:20:00.781Z,61.37
2022-12-19T10:20:27.247Z,59.71
2022-12-19T10:22:17.667Z,63.13
2022-12-19T10:22:59.437Z,63.21
2022-12-19T10:23:27.999Z,64.12
2022-12-19T10:25:08.240Z,61.68
2022-12-19T10:25:55.819Z,61.90
2022-12-19T10:26:59.407Z,61.24
2022-12-19T10:28:00.523Z,60.91
2022-12-19T10:28:59.282Z,63.08
2022-12-19T10:29:59.662Z,57.90
2022-12-19T10:30:27.925Z,60.43
2022-12-19T10:31:59.495Z,61.74
2022-12-19T10:32:59.381Z,65.96
2022-12-19T10:33:59.403Z,61.11
2022-12-19T10:35:00.263Z,62.91
2022-12-19T10:36:01.974Z,62.98
2022-12-19T10:41:44.030Z,64.68
2022-12-19T10:42:07.977Z,63.92
2022-12-19T10:43:10.902Z,60.37
2022-12-19T10:44:07.787Z,61.15
2022-12-19T10:45:07.783Z,60.38
2022-12-19T10:46:07.867Z,63.06
2022-12-19T10:47:07.770Z,65.20
2022-12-19T10:48:07.810Z,62.17
2022-12-19T10:49:07.715Z,63.13
2022-12-19T10:50:09.902Z,62.93
2022-12-19T10:51:08.694Z,62.39
2022-12-19T10:52:07.711Z,62.62
2022-12-19T10:53:07.752Z,62.96
2022-12-19T10:54:07.645Z,60.56
2022-12-19T10:55:07.840Z,62.53
2022-12-19T10:56:07.681Z,60.85
2022-12-19T10:57:07.702Z,59.32
2022-12-19T10:58:07.780Z,61.78
2022-12-19T10:59:07.632Z,63.09
2022-12-19T11:00:07.690Z,61.04
2022-12-19T11:01:07.720Z,63.96
2022-12-19T11:02:11.620Z,62.33
2022-12-19T11:03:07.661Z,61.30
2022-12-19T11:04:07.672Z,60.48
2022-12-19T11:05:07.708Z,61.44
2022-12-19T11:06:07.574Z,61.34
2022-12-19T11:07:07.567Z,60.07
2022-12-19T11:08:07.560Z,62.86
2022-12-19T11:09:07.708Z,61.10
2022-12-19T11:11:19.323Z,59.31
2022-12-19T11:12:08.020Z,62.52
2022-12-19T11:17:48.494Z,62.61
2022-12-19T11:18:36.991Z,62.74
2022-12-19T11:18:49.348Z,63.76
2022-12-19T11:21:27.240Z,62.77
2022-12-19T11:21:30.559Z,60.00
2022-12-19T11:21:31.674Z,61.94
2022-12-19T11:23:39.141Z,62.64
2022-12-19T11:29:16.567Z,64.56
2022-12-19T11:30:46.766Z,61.98
2022-12-19T11:32:39.085Z,62.06
2022-12-19T11:35:46.025Z,63.18
2022-12-19T11:36:44.814Z,61.65
2022-12-19T11:37:36.922Z,62.70
2022-12-19T11:38:36.889Z,59.79
2022-12-19T11:40:10.894Z,62.63
2022-12-19T11:41:12.816Z,65.07
2022-12-19T11:41:38.184Z,64.44
2022-12-19T11:43:43.084Z,61.71
2022-12-19T11:44:12.376Z,64.82
2022-12-19T11:45:10.497Z,61.99
2022-12-19T11:46:16.258Z,62.40
2022-12-19T11:46:39.156Z,62.30
2022-12-19T11:47:38.125Z,61.77
2022-12-19T11:48:38.089Z,61.24
2022-12-19T11:49:37.967Z,62.91
2022-12-19T11:50:37.979Z,62.74
2022-12-19T11:51:37.945Z,61.58
2022-12-19T11:53:03.560Z,62.47
2022-12-19T11:53:39.912Z,59.80
2022-12-19T11:54:37.959Z,61.04
2022-12-19T11:55:37.953Z,62.54
2022-12-19T11:56:37.899Z,62.44
2022-12-19T11:57:37.937Z,62.04
2022-12-19T11:59:10.370Z,61.42
2022-12-19T11:59:38.027Z,62.94
2022-12-19T12:00:38.297Z,62.12
2022-12-19T12:01:38.038Z,63.87
2022-12-19T12:02:37.953Z,64.90
2022-12-19T12:03:37.885Z,64.33
2022-12-19T12:04:37.865Z,62.99
2022-12-19T12:05:37.839Z,62.90
2022-12-19T12:06:38.073Z,61.90
2022-12-19T12:08:55.169Z,63.85
2022-12-19T12:09:24.538Z,62.33
2022-12-19T12:11:34.986Z,62.09
2022-12-19T12:14:38.880Z,64.68
2022-12-19T12:19:26.324Z,66.00
2022-12-19T12:21:22.196Z,67.44
2022-12-19T12:23:08.524Z,66.21
2022-12-19T12:26:19.560Z,65.38
2022-12-19T12:26:58.599Z,61.91
2022-12-19T12:27:46.443Z,62.27
2022-12-19T12:29:46.091Z,63.01
2022-12-19T12:31:01.331Z,64.11
2022-12-19T12:31:15.728Z,62.91
2022-12-19T12:31:17.059Z,63.02
2022-12-19T12:31:19.293Z,66.45
2022-12-19T12:31:31.686Z,63.75
2022-12-19T12:31:41.327Z,61.86
2022-12-19T12:31:41.876Z,60.74
2022-12-19T12:31:45.690Z,65.46
2022-12-19T12:31:54.262Z,61.18
2022-12-19T12:31:55.168Z,64.52
2022-12-19T12:32:04.210Z,63.18
2022-12-19T12:32:04.346Z,61.22
2022-12-19T12:32:04.830Z,65.08
2022-12-19T12:35:28.855Z,64.31
2022-12-19T12:35:28.857Z,63.27
2022-12-19T12:35:48.612Z,62.05
2022-12-19T12:38:13.555Z,62.60
2022-12-19T12:38:39.843Z,64.49
2022-12-19T12:39:37.516Z,62.32
2022-12-19T12:40:37.510Z,64.29
2022-12-19T12:41:37.489Z,63.24
2022-12-19T12:42:37.616Z,63.80
2022-12-19T12:43:37.451Z,65.15
2022-12-19T12:44:44.751Z,61.21
2022-12-19T12:45:39.455Z,62.08
2022-12-19T12:46:37.409Z,63.45
2022-12-19T12:47:37.501Z,62.54
2022-12-19T12:48:37.371Z,60.33
2022-12-19T12:49:40.427Z,63.71
2022-12-19T12:50:37.469Z,63.74
2022-12-19T12:51:37.992Z,62.73
2022-12-19T12:52:37.427Z,63.80
2022-12-19T12:53:37.334Z,62.33
2022-12-19T12:54:37.413Z,64.52
2022-12-19T12:55:37.392Z,64.15
2022-12-19T12:56:37.389Z,63.06
2022-12-19T12:57:37.328Z,62.68
2022-12-19T12:58:37.295Z,64.25
2022-12-19T12:59:37.291Z,62.68
2022-12-19T13:00:37.337Z,63.59
2022-12-19T13:01:37.413Z,63.10
2022-12-19T13:02:37.486Z,64.35
2022-12-19T13:03:37.359Z,64.33
2022-12-19T13:04:37.252Z,62.54
2022-12-19T13:05:37.237Z,63.66
2022-12-19T13:06:37.259Z,63.40
2022-12-19T13:07:38.177Z,62.03
2022-12-19T13:08:37.220Z,61.94
2022-12-19T13:09:37.234Z,61.07
2022-12-19T13:10:37.292Z,62.40
2022-12-19T13:11:37.302Z,64.97
2022-12-19T13:12:37.154Z,66.46
2022-12-19T13:13:37.230Z,65.23
2022-12-19T13:14:37.169Z,65.36
2022-12-19T13:15:37.159Z,63.69
2022-12-19T13:16:37.211Z,63.23
2022-12-19T13:17:37.245Z,64.18
2022-12-19T13:18:37.077Z,63.21
2022-12-19T13:19:37.102Z,64.46
2022-12-19T13:20:37.158Z,63.91
2022-12-19T13:21:37.069Z,65.48
2022-12-19T13:22:37.078Z,62.12
2022-12-19T13:23:37.049Z,63.47
2022-12-19T13:24:37.531Z,63.55
2022-12-19T13:25:37.174Z,63.29
2022-12-19T13:26:37.309Z,64.62
2022-12-19T13:27:37.382Z,63.96
2022-12-19T13:28:36.983Z,65.75
2022-12-19T13:29:37.116Z,66.01
2022-12-19T13:31:15.465Z,66.77
2022-12-19T13:31:38.045Z,64.68
2022-12-19T13:32:39.567Z,63.87
2022-12-19T13:33:37.901Z,65.94
2022-12-19T13:34:37.039Z,63.27
2022-12-19T13:36:49.303Z,63.08
2022-12-19T13:39:51.267Z,63.52
2022-12-19T13:39:51.267Z,63.43
2022-12-19T13:39:55.539Z,63.21
2022-12-19T13:39:57.596Z,63.38
2022-12-19T13:40:37.910Z,63.28
2022-12-19T13:41:36.926Z,66.64
2022-12-19T13:42:37.082Z,64.43
2022-12-19T13:43:36.926Z,63.48
2022-12-19T13:44:36.896Z,62.59
2022-12-19T13:45:36.948Z,62.57
2022-12-19T13:46:36.898Z,65.20
2022-12-19T13:47:36.885Z,63.24
2022-12-19T13:48:36.847Z,64.43
2022-12-19T13:49:36.825Z,62.21
2022-12-19T13:50:36.838Z,64.92
2022-12-19T13:51:36.809Z,63.43
2022-12-19T13:52:36.806Z,61.90
2022-12-19T13:53:36.789Z,65.61
2022-12-19T13:54:36.920Z,64.51
2022-12-19T13:55:36.755Z,63.74
2022-12-19T13:56:36.823Z,63.62
2022-12-19T13:57:36.736Z,62.91
2022-12-19T13:58:36.685Z,63.97
2022-12-19T13:59:36.799Z,62.34
2022-12-19T14:00:36.729Z,65.19
2022-12-19T14:01:36.855Z,61.86
2022-12-19T14:02:44.009Z,62.61
2022-12-19T14:03:38.155Z,65.39
2022-12-19T14:04:36.749Z,64.51
2022-12-19T14:06:15.752Z,62.29
2022-12-19T14:06:37.637Z,62.35
2022-12-19T14:07:36.996Z,63.04
2022-12-19T14:08:36.665Z,65.37
2022-12-19T14:11:26.874Z,63.55
2022-12-19T14:11:40.899Z,64.91
2022-12-19T14:13:39.795Z,63.34
2022-12-19T14:13:43.068Z,63.69
2022-12-19T14:13:52.968Z,65.15
2022-12-19T14:17:48.296Z,62.30
2022-12-19T14:18:47.380Z,63.56
2022-12-19T14:19:47.383Z,64.23
2022-12-19T14:22:10.511Z,63.10
2022-12-19T14:22:11.162Z,64.68
2022-12-19T14:22:48.321Z,64.06
2022-12-19T14:23:47.318Z,63.72
2022-12-19T14:24:47.359Z,64.51
2022-12-19T14:28:20.292Z,64.04
2022-12-19T14:28:21.198Z,64.52
2022-12-19T14:28:26.430Z,62.73
2022-12-19T14:28:54.801Z,63.95
2022-12-19T14:30:27.276Z,62.53
2022-12-19T14:30:50.294Z,65.14
2022-12-19T14:32:33.237Z,63.04
2022-12-19T14:33:44.255Z,62.46
2022-12-19T14:34:11.168Z,62.57
2022-12-19T14:36:06.232Z,62.57
2022-12-19T14:36:07.516Z,65.48
2022-12-19T14:36:49.410Z,66.52
2022-12-19T14:39:22.712Z,65.64
2022-12-19T14:39:22.831Z,65.79
2022-12-19T14:39:49.593Z,62.93
2022-12-19T14:41:08.820Z,62.85
2022-12-19T14:41:49.278Z,63.84
2022-12-19T14:43:56.378Z,64.19
2022-12-19T14:43:58.694Z,63.28
2022-12-19T14:52:35.648Z,65.35
2022-12-19T14:53:52.384Z,64.17
2022-12-19T14:54:03.374Z,62.96
2022-12-19T14:54:03.655Z,65.42
2022-12-19T14:54:11.219Z,63.43
2022-12-19T14:54:14.411Z,63.12
2022-12-19T14:54:22.083Z,63.13
2022-12-19T14:54:23.270Z,62.21
2022-12-19T14:54:31.208Z,63.46
2022-12-19T14:54:42.088Z,61.79
2022-12-19T14:56:00.427Z,64.21
2022-12-19T14:56:12.935Z,62.58
2022-12-19T14:57:00.387Z,62.68
2022-12-19T14:58:53.746Z,63.14
2022-12-19T14:58:54.201Z,63.92
2022-12-19T14:59:49.180Z,62.92
2022-12-19T15:01:07.576Z,63.40
2022-12-19T15:01:50.664Z,64.22
2022-12-19T15:02:48.514Z,63.97
2022-12-19T15:04:47.239Z,65.79
2022-12-19T15:04:54.964Z,62.88
2022-12-19T15:05:48.137Z,61.08
2022-12-19T15:07:09.922Z,64.19
2022-12-19T15:07:51.332Z,63.71
2022-12-19T15:09:50.713Z,62.07
2022-12-19T15:11:00.975Z,63.96
2022-12-19T15:11:09.506Z,64.59
2022-12-19T15:12:05.870Z,63.86
2022-12-19T15:14:47.389Z,64.20
2022-12-19T15:14:51.167Z,63.87
2022-12-19T15:14:59.179Z,62.26
2022-12-19T15:15:50.222Z,63.48
2022-12-19T15:16:48.240Z,63.31
2022-12-19T15:17:48.071Z,63.97
2022-12-19T15:18:48.061Z,62.90
2022-12-19T15:19:48.219Z,62.91
2022-12-19T15:20:48.028Z,63.64
2022-12-19T15:21:48.040Z,63.97
2022-12-19T15:22:48.019Z,64.41
2022-12-19T15:23:47.966Z,61.89
2022-12-19T15:24:48.255Z,64.91
2022-12-19T15:26:56.648Z,65.63
2022-12-19T15:27:49.238Z,64.73
2022-12-19T15:28:48.100Z,64.69
2022-12-19T15:29:47.933Z,62.56
2022-12-19T15:30:47.925Z,64.08
2022-12-19T15:31:49.141Z,63.08
2022-12-19T15:32:48.369Z,61.00
2022-12-19T15:34:14.856Z,61.93
2022-12-19T15:34:51.747Z,61.50
2022-12-19T15:35:48.894Z,60.97
2022-12-19T15:36:48.021Z,60.19
2022-12-19T15:37:47.832Z,61.00
2022-12-19T15:38:47.887Z,62.47
2022-12-19T15:39:47.889Z,61.16
2022-12-19T15:40:47.764Z,62.49
2022-12-19T15:41:47.779Z,59.52
2022-12-19T15:42:47.772Z,60.67
2022-12-19T15:44:04.922Z,59.59
2022-12-19T15:44:50.125Z,59.75
2022-12-19T15:45:47.957Z,61.47
2022-12-19T15:46:49.239Z,60.12
2022-12-19T15:47:48.763Z,57.46
2022-12-19T15:48:47.804Z,60.65
2022-12-19T15:49:48.655Z,61.63
2022-12-19T15:50:48.498Z,59.39
2022-12-19T15:51:47.828Z,61.90
2022-12-19T15:52:47.692Z,60.88
2022-12-19T15:53:47.745Z,60.30
2022-12-19T15:54:50.178Z,62.32
2022-12-19T15:55:47.900Z,62.08
2022-12-19T15:56:49.946Z,61.74
2022-12-19T15:57:47.813Z,63.76
2022-12-19T15:58:49.307Z,60.40
2022-12-19T15:59:48.374Z,60.85
2022-12-19T16:00:48.146Z,59.61
2022-12-19T16:01:47.826Z,60.60
2022-12-19T16:03:50.365Z,60.80
2022-12-19T16:04:47.790Z,63.42
2022-12-19T16:05:48.178Z,62.20
2022-12-19T16:06:54.878Z,62.36
2022-12-19T16:07:49.400Z,64.00
2022-12-19T16:08:47.674Z,59.71
2022-12-19T16:09:48.387Z,62.77
2022-12-19T16:10:49.902Z,63.96
2022-12-19T16:12:15.274Z,60.74
2022-12-19T16:13:10.712Z,62.65
2022-12-19T16:13:49.074Z,63.37
2022-12-19T16:14:49.681Z,63.36
2022-12-19T16:15:49.725Z,64.30
2022-12-19T16:16:50.045Z,64.00
2022-12-19T16:17:48.283Z,59.87
2022-12-19T16:18:47.488Z,62.42
2022-12-19T16:19:49.396Z,63.19
2022-12-19T16:21:06.735Z,61.57
2022-12-19T16:21:50.404Z,61.12
2022-12-19T16:22:49.415Z,62.61
2022-12-19T16:23:47.436Z,63.38
2022-12-19T16:24:47.365Z,62.83
2022-12-19T16:25:47.511Z,64.69
2022-12-19T16:26:47.478Z,62.76
2022-12-19T16:27:47.962Z,61.64
2022-12-19T16:28:48.093Z,65.09
2022-12-19T16:29:47.443Z,63.96
2022-12-19T16:30:48.032Z,64.46
2022-12-19T16:31:47.385Z,61.66
2022-12-19T16:32:49.084Z,60.80
2022-12-19T16:33:47.305Z,63.41
2022-12-19T16:34:47.315Z,63.75
2022-12-19T16:36:04.240Z,64.95
2022-12-19T16:36:49.247Z,63.87
2022-12-19T16:37:47.496Z,63.22
2022-12-19T16:38:48.243Z,62.93
2022-12-19T16:39:47.225Z,62.27
2022-12-19T16:40:47.801Z,61.89
2022-12-19T16:41:47.298Z,63.16
2022-12-19T16:42:52.089Z,63.74
2022-12-19T16:43:48.192Z,62.21
2022-12-19T16:44:47.351Z,61.67
2022-12-19T16:45:47.203Z,62.10
2022-12-19T16:46:51.007Z,60.55
2022-12-19T16:47:48.287Z,60.22
2022-12-19T16:48:47.758Z,60.44
2022-12-19T16:49:47.350Z,62.68
2022-12-19T16:50:48.315Z,60.95
2022-12-19T16:51:47.150Z,63.11
2022-12-19T16:52:48.427Z,63.48
2022-12-19T16:53:47.228Z,63.03
2022-12-19T16:54:47.162Z,63.77
2022-12-19T16:55:47.113Z,61.57
2022-12-19T16:56:47.351Z,61.83
2022-12-19T16:57:47.391Z,62.85
2022-12-19T16:58:47.632Z,62.05
2022-12-19T16:59:47.112Z,60.37
2022-12-19T17:00:47.118Z,62.11
2022-12-19T17:01:47.233Z,63.24
2022-12-19T17:02:47.259Z,63.06
2022-12-19T17:03:47.008Z,62.49
2022-12-19T17:04:53.754Z,61.77
2022-12-19T17:05:49.856Z,62.52
2022-12-19T17:06:47.182Z,64.58
2022-12-19T17:07:47.260Z,62.17
2022-12-19T17:08:48.099Z,60.46
2022-12-19T17:09:47.810Z,62.79
2022-12-19T17:10:47.112Z,62.64
2022-12-19T17:11:46.945Z,61.09
2022-12-19T17:12:47.024Z,63.41
2022-12-19T17:13:46.985Z,62.82
2022-12-19T17:14:46.963Z,61.09
2022-12-19T17:15:52.638Z,63.64
2022-12-19T17:16:49.067Z,63.22
2022-12-19T17:17:47.302Z,61.40
2022-12-19T17:18:47.368Z,62.87
2022-12-19T17:19:47.344Z,62.49
2022-12-19T17:20:46.957Z,62.78
2022-12-19T17:21:46.886Z,61.38
2022-12-19T17:22:46.944Z,64.24
2022-12-19T17:23:47.195Z,60.00
2022-12-19T17:24:47.111Z,61.93
2022-12-19T17:25:47.701Z,60.40
2022-12-19T17:26:46.824Z,60.45
2022-12-19T17:27:47.694Z,60.91
2022-12-19T17:28:46.784Z,58.51
2022-12-19T17:29:50.251Z,62.46
2022-12-19T17:30:47.298Z,62.67
2022-12-19T17:31:46.747Z,60.50
2022-12-19T17:32:47.767Z,58.38
2022-12-19T17:33:47.296Z,60.63
2022-12-19T17:34:46.807Z,59.67
2022-12-19T17:35:48.798Z,63.40
2022-12-19T17:36:47.056Z,60.46
2022-12-19T17:37:49.290Z,61.46
2022-12-19T17:38:50.309Z,60.82